LFLY/LYN METAR and TAF weather

Enter ICAO airport designator
Station Type Date Time Source
LFLY METAR 2021/04/14 20:30 UTC NOAA

LFLY 142030Z AUTO 35012KT CAVOK 08/M05 Q1023 NOSIG


Station Type Date Time Source
LFLY Decoded METAR 2021/04/14 20:30 UTC NOAA

Lyon / Bron, France (LFLY) 45-43N 004-57E 201M
Apr 14, 2021 - 04:30 PM EDT / 2021.04.14 2030 UTC
Wind: from the N (350 degrees) at 14 MPH (12 KT):0
Visibility: greater than 7 mile(s):0
Temperature: 46 F (8 C)
Dew Point: 23 F (-5 C)
Relative Humidity: 39%
Pressure (altimeter): 30.21 in. Hg (1023 hPa)
ob: LFLY 142030Z AUTO 35012KT CAVOK 08/M05 Q1023 NOSIG
cycle: 20

Station Type Date Time Source
LFLY TAF 2021/04/14 18:26 UTC NOAA

TAF LFLY 141700Z 1418/1518 34010KT CAVOK

Example: see airport list